Time;durP1;ratioP1;P1;durP2;ratioP2;P2;SDS_P1;SDS_P2;PMS_P1;PMS_P2;Temp;Humidity;BMP_temperature;BMP_pressure;BME280_temperature;BME280_humidity;BME280_pressure;Samples;Min_cycle;Max_cycle;Signal;HPM_P1;HPM_P2
2022/06/05 00:00:43;;;;;;;17.77;14.82;;;11.80;99.90;;;;;;5063068;28;20120;-60
2022/06/05 00:03:12;;;;;;;23.88;16.63;;;11.80;99.90;;;;;;5063752;28;20044;-60
2022/06/05 00:05:58;;;;;;;21.00;16.15;;;11.80;99.90;;;;;;5048466;28;20575;-59
2022/06/05 00:08:42;;;;;;;19.33;15.38;;;11.80;99.90;;;;;;5073211;28;20045;-57
2022/06/05 00:11:09;;;;;;;21.67;15.75;;;11.70;99.90;;;;;;5047287;28;20109;-57
2022/06/05 00:13:46;;;;;;;19.73;16.85;;;11.70;99.90;;;;;;5065619;28;20455;-56
2022/06/05 00:16:15;;;;;;;22.23;15.70;;;11.70;99.90;;;;;;5058235;28;20045;-57
2022/06/05 00:18:45;;;;;;;21.45;15.20;;;11.70;99.90;;;;;;5052186;28;20051;-57
2022/06/05 00:21:12;;;;;;;16.52;14.40;;;11.70;99.90;;;;;;5067324;28;20474;-56
2022/06/05 00:23:40;;;;;;;23.35;17.23;;;11.70;99.90;;;;;;5066279;28;20049;-57
2022/06/05 00:26:32;;;;;;;18.45;15.90;;;11.60;99.90;;;;;;5059437;28;20060;-58
2022/06/05 00:29:04;;;;;;;;;;;11.60;99.90;;;;;;5042879;28;20048;-57
2022/06/05 00:32:15;;;;;;;17.92;14.90;;;11.70;99.90;;;;;;5072612;28;19959;-56
2022/06/05 00:34:42;;;;;;;20.40;15.32;;;11.60;99.90;;;;;;5035035;28;20130;-57
2022/06/05 00:37:31;;;;;;;22.23;16.38;;;11.60;99.90;;;;;;5062355;28;20407;-60
2022/06/05 00:40:12;;;;;;;18.52;16.45;;;11.60;99.90;;;;;;5061237;28;20053;-59
2022/06/05 00:42:38;;;;;;;19.30;17.23;;;11.60;99.90;;;;;;5056561;28;20501;-59
2022/06/05 00:45:10;;;;;;;18.65;16.17;;;11.60;99.90;;;;;;5053927;28;20777;-59
2022/06/05 00:47:38;;;;;;;19.27;16.90;;;11.60;99.90;;;;;;5060754;28;20044;-60
2022/06/05 00:50:19;;;;;;;20.13;16.80;;;11.60;99.90;;;;;;5060759;28;20817;-59
2022/06/05 00:52:49;;;;;;;18.80;16.60;;;11.60;99.90;;;;;;5055955;28;20142;-57
2022/06/05 00:55:17;;;;;;;20.35;16.63;;;11.60;99.90;;;;;;5058696;28;20137;-56
2022/06/05 00:57:43;;;;;;;19.95;16.38;;;11.60;99.90;;;;;;5057386;28;20097;-55
2022/06/05 01:00:19;;;;;;;21.10;17.25;;;11.60;99.90;;;;;;5067789;28;20461;-55
2022/06/05 01:02:50;;;;;;;21.95;17.30;;;11.60;99.90;;;;;;5063659;28;20075;-57
2022/06/05 01:05:17;;;;;;;23.48;17.65;;;11.60;99.90;;;;;;5067694;28;20044;-58
2022/06/05 01:07:43;;;;;;;19.83;17.35;;;11.50;99.90;;;;;;5036979;28;20044;-56
2022/06/05 01:10:10;;;;;;;22.50;17.20;;;11.50;99.90;;;;;;5040618;28;20083;-58
2022/06/05 01:12:58;;;;;;;24.50;17.65;;;11.50;99.90;;;;;;5068752;28;20051;-56
2022/06/05 01:15:49;;;;;;;24.02;17.20;;;11.60;99.90;;;;;;5068660;28;20105;-56
2022/06/05 01:18:45;;;;;;;20.02;16.83;;;11.50;99.90;;;;;;5070593;28;20056;-59
2022/06/05 01:21:35;;;;;;;24.00;17.88;;;11.50;99.90;;;;;;5052095;28;20060;-59
2022/06/05 01:24:12;;;;;;;25.05;17.35;;;11.50;99.90;;;;;;5060854;28;20489;-59
2022/06/05 01:26:55;;;;;;;21.85;18.48;;;11.50;99.90;;;;;;5076826;28;20135;-56
2022/06/05 01:29:27;;;;;;;19.83;17.60;;;11.50;99.90;;;;;;5066907;28;20045;-56
2022/06/05 01:32:09;;;;;;;24.80;18.98;;;11.50;99.90;;;;;;5043599;28;20154;-56
2022/06/05 01:34:42;;;;;;;23.05;18.58;;;11.50;99.90;;;;;;5062020;28;20403;-56
2022/06/05 01:37:34;;;;;;;25.30;19.13;;;11.50;99.90;;;;;;5057803;28;20060;-56
2022/06/05 01:40:12;;;;;;;24.83;18.67;;;11.40;99.90;;;;;;5059823;28;20053;-58
2022/06/05 01:42:43;;;;;;;21.25;18.17;;;11.40;99.90;;;;;;5078188;28;20109;-57
2022/06/05 01:45:46;;;;;;;20.80;18.58;;;11.40;99.90;;;;;;5056470;28;20055;-56
2022/06/05 01:48:41;;;;;;;27.08;18.90;;;11.40;99.90;;;;;;5051180;28;20252;-55
2022/06/05 01:51:17;;;;;;;26.55;20.00;;;11.40;99.90;;;;;;5060972;28;20118;-59
2022/06/05 01:53:46;;;;;;;24.75;19.70;;;11.30;99.90;;;;;;5063910;28;20788;-54
2022/06/05 01:56:37;;;;;;;21.70;19.02;;;11.30;99.90;;;;;;5063476;28;20106;-54
2022/06/05 01:59:12;;;;;;;23.50;18.63;;;11.30;99.90;;;;;;5050048;28;20106;-59
2022/06/05 02:01:45;;;;;;;22.17;18.67;;;11.30;99.90;;;;;;5050750;28;20132;-59
2022/06/05 02:04:29;;;;;;;23.98;18.95;;;11.30;99.90;;;;;;5064777;28;20052;-60
2022/06/05 02:07:01;;;;;;;23.40;19.88;;;11.30;99.90;;;;;;5057329;28;20127;-59
2022/06/05 02:09:36;;;;;;;24.95;18.60;;;11.30;99.90;;;;;;5071193;28;20080;-56
2022/06/05 02:12:07;;;;;;;24.25;19.40;;;11.30;99.90;;;;;;5067994;28;20052;-57
2022/06/05 02:14:33;;;;;;;26.17;19.00;;;11.30;99.90;;;;;;5056760;28;20160;-55
2022/06/05 02:17:00;;;;;;;23.17;19.70;;;11.30;99.90;;;;;;5046878;28;20135;-60
2022/06/05 02:19:26;;;;;;;23.02;19.40;;;11.30;99.90;;;;;;5071867;28;20132;-60
2022/06/05 02:22:01;;;;;;;24.45;19.55;;;11.20;99.90;;;;;;5042546;28;20156;-59
2022/06/05 02:24:28;;;;;;;30.38;20.45;;;11.20;99.90;;;;;;5078140;28;20049;-57
2022/06/05 02:26:57;;;;;;;23.90;19.67;;;11.20;99.90;;;;;;5064751;28;20071;-56
2022/06/05 02:29:25;;;;;;;27.20;20.98;;;11.30;99.90;;;;;;5058618;28;20052;-57
2022/06/05 02:32:09;;;;;;;21.85;19.38;;;11.30;99.90;;;;;;5043940;28;20045;-54
2022/06/05 02:35:00;;;;;;;25.13;19.33;;;11.30;99.90;;;;;;5064252;28;20127;-54
2022/06/05 02:37:28;;;;;;;23.83;18.38;;;11.30;99.90;;;;;;5059268;28;20048;-53
2022/06/05 02:40:09;;;;;;;24.38;19.58;;;11.30;99.90;;;;;;5066894;28;20051;-56
2022/06/05 02:42:47;;;;;;;25.38;19.70;;;11.30;99.90;;;;;;5060916;28;20054;-55
2022/06/05 02:45:16;;;;;;;26.48;19.52;;;11.30;99.90;;;;;;5060092;28;20036;-54
2022/06/05 02:47:58;;;;;;;24.23;19.58;;;11.30;99.90;;;;;;5055691;28;20465;-55
2022/06/05 02:50:41;;;;;;;23.27;20.48;;;11.30;99.90;;;;;;5056620;28;20084;-55
2022/06/05 02:53:10;;;;;;;26.13;19.85;;;11.30;99.90;;;;;;5064543;28;20059;-53
2022/06/05 02:55:37;;;;;;;26.35;20.77;;;11.30;99.90;;;;;;5061651;28;20057;-55
2022/06/05 02:58:03;;;;;;;29.45;20.27;;;11.30;99.90;;;;;;5057814;28;20053;-58
2022/06/05 03:00:32;;;;;;;24.58;18.50;;;11.30;99.90;;;;;;5062760;28;20060;-59
2022/06/05 03:05:44;;;;;;;26.08;20.13;;;11.30;99.90;;;;;;5044289;28;20044;-56
2022/06/05 03:08:13;;;;;;;24.27;19.33;;;11.30;99.90;;;;;;5053481;28;20108;-54
2022/06/05 03:10:41;;;;;;;23.55;19.02;;;11.30;99.90;;;;;;5078845;28;20045;-61
2022/06/05 03:13:08;;;;;;;28.02;20.05;;;11.30;99.90;;;;;;5053555;28;20045;-53
2022/06/05 03:15:34;;;;;;;25.80;21.27;;;11.30;99.90;;;;;;5060964;28;20056;-53
2022/06/05 03:18:01;;;;;;;28.70;20.27;;;11.30;99.90;;;;;;5075621;28;20058;-60
2022/06/05 03:20:27;;;;;;;25.13;19.88;;;11.30;99.90;;;;;;5066415;28;20123;-59
2022/06/05 03:22:54;;;;;;;25.05;20.40;;;11.40;99.90;;;;;;5070271;28;20498;-60
2022/06/05 03:25:24;;;;;;;25.58;20.23;;;11.40;99.90;;;;;;5062867;28;20659;-59
2022/06/05 03:27:54;;;;;;;26.17;21.35;;;11.40;99.90;;;;;;5069560;28;20044;-58
2022/06/05 03:30:20;;;;;;;24.92;18.42;;;11.40;99.90;;;;;;5052107;28;20103;-57
2022/06/05 03:32:46;;;;;;;23.60;20.48;;;11.40;99.90;;;;;;5062961;28;20044;-61
2022/06/05 03:35:14;;;;;;;24.67;20.23;;;11.40;99.90;;;;;;5061943;28;20076;-60
2022/06/05 03:37:40;;;;;;;28.42;20.98;;;11.50;99.90;;;;;;5061606;28;20052;-60
2022/06/05 03:40:09;;;;;;;26.33;20.83;;;11.50;99.90;;;;;;5040734;28;20504;-60
2022/06/05 03:42:35;;;;;;;24.75;19.48;;;11.50;99.90;;;;;;5041058;28;20053;-54
2022/06/05 03:45:01;;;;;;;22.85;19.83;;;11.50;99.90;;;;;;5045778;28;20048;-59
2022/06/05 03:47:27;;;;;;;23.20;19.98;;;11.50;99.90;;;;;;5060399;28;20138;-60
2022/06/05 03:49:53;;;;;;;24.63;19.60;;;11.60;99.90;;;;;;5059106;28;20238;-60
2022/06/05 03:52:19;;;;;;;28.27;20.73;;;11.50;99.90;;;;;;5062432;28;20582;-60
2022/06/05 03:54:45;;;;;;;26.15;19.80;;;11.60;99.90;;;;;;5058989;28;20084;-60
2022/06/05 03:57:11;;;;;;;29.35;20.67;;;11.60;99.90;;;;;;5058283;28;20052;-59
2022/06/05 03:59:37;;;;;;;25.38;19.00;;;11.60;99.90;;;;;;5056188;28;20044;-60
2022/06/05 04:02:05;;;;;;;26.20;20.35;;;11.60;99.90;;;;;;5047236;28;21118;-60
2022/06/05 04:04:32;;;;;;;24.58;19.77;;;11.60;99.90;;;;;;5059789;28;20438;-60
2022/06/05 04:06:58;;;;;;;24.92;19.50;;;11.60;99.90;;;;;;5057520;28;20060;-61
2022/06/05 04:09:25;;;;;;;23.63;20.15;;;11.70;99.90;;;;;;5074402;28;20045;-60
2022/06/05 04:11:51;;;;;;;25.30;20.65;;;11.70;99.90;;;;;;5045259;28;20068;-61
2022/06/05 04:14:18;;;;;;;25.75;19.85;;;11.70;99.90;;;;;;5054193;28;20053;-55
2022/06/05 04:16:44;;;;;;;25.83;20.15;;;11.80;99.90;;;;;;5066340;28;20056;-57
2022/06/05 04:19:10;;;;;;;24.52;19.33;;;11.80;99.90;;;;;;5059644;28;20049;-56
2022/06/05 04:21:39;;;;;;;25.00;19.38;;;11.80;99.90;;;;;;5065861;28;20050;-55
2022/06/05 04:24:05;;;;;;;24.90;19.88;;;11.90;99.90;;;;;;5040516;28;20080;-55
2022/06/05 04:26:34;;;;;;;23.70;19.20;;;12.00;99.90;;;;;;5079050;28;20132;-53
2022/06/05 04:29:00;;;;;;;22.92;18.15;;;12.00;99.90;;;;;;5061922;28;20036;-56
2022/06/05 04:31:29;;;;;;;24.10;19.90;;;12.10;99.90;;;;;;5054682;28;20543;-56
2022/06/05 04:33:59;;;;;;;25.52;18.90;;;12.10;99.90;;;;;;5060994;28;20553;-55
2022/06/05 04:36:25;;;;;;;24.05;18.58;;;12.30;99.90;;;;;;5061959;28;20048;-53
2022/06/05 04:38:51;;;;;;;22.83;19.17;;;12.40;99.90;;;;;;5062258;28;20049;-54
2022/06/05 04:41:18;;;;;;;22.67;18.95;;;12.50;99.90;;;;;;5059332;28;20119;-60
2022/06/05 04:43:46;;;;;;;20.67;18.45;;;12.60;99.90;;;;;;5048284;28;20049;-53
2022/06/05 04:46:12;;;;;;;21.65;18.02;;;12.70;99.90;;;;;;5060303;28;20052;-54
2022/06/05 04:48:38;;;;;;;22.42;19.80;;;12.80;99.90;;;;;;5054997;28;20056;-56
2022/06/05 04:51:06;;;;;;;21.35;17.85;;;12.90;99.90;;;;;;5064419;28;20044;-56
2022/06/05 04:53:32;;;;;;;20.38;17.10;;;13.10;99.90;;;;;;5065102;28;20044;-56
2022/06/05 04:56:03;;;;;;;19.35;16.80;;;13.10;99.90;;;;;;5068197;28;20063;-60
2022/06/05 04:58:29;;;;;;;22.05;16.75;;;13.20;99.90;;;;;;5055543;28;20083;-60
2022/06/05 05:00:55;;;;;;;18.25;16.33;;;13.20;99.90;;;;;;5039385;28;20129;-60
2022/06/05 05:03:21;;;;;;;18.88;16.95;;;13.30;99.90;;;;;;5062365;28;20105;-60
2022/06/05 05:05:47;;;;;;;19.60;16.90;;;13.40;99.90;;;;;;5078189;28;20055;-60
2022/06/05 05:08:14;;;;;;;19.00;17.10;;;13.60;99.90;;;;;;5070059;28;20615;-61
2022/06/05 05:10:40;;;;;;;21.42;17.23;;;13.80;99.90;;;;;;5061949;28;20057;-60
2022/06/05 05:13:06;;;;;;;19.77;16.75;;;13.70;99.90;;;;;;5061542;28;20102;-60
2022/06/05 05:15:32;;;;;;;18.23;16.33;;;13.90;99.90;;;;;;5062485;28;20129;-60
2022/06/05 05:17:58;;;;;;;18.77;16.70;;;13.90;99.90;;;;;;5046160;28;20060;-61
2022/06/05 05:20:25;;;;;;;20.02;17.77;;;13.90;99.90;;;;;;5057054;28;20127;-60
2022/06/05 05:22:52;;;;;;;19.80;16.63;;;14.00;99.90;;;;;;5063578;28;20748;-61
2022/06/05 05:25:18;;;;;;;19.58;17.48;;;13.90;99.90;;;;;;5054676;28;20474;-60
2022/06/05 05:27:45;;;;;;;21.17;16.27;;;13.90;99.90;;;;;;5055204;28;20049;-59
2022/06/05 05:30:12;;;;;;;20.02;16.92;;;13.90;99.90;;;;;;5063486;28;20496;-59
2022/06/05 05:32:39;;;;;;;17.35;15.65;;;14.00;99.90;;;;;;5062375;28;20053;-59
2022/06/05 05:35:06;;;;;;;19.55;16.90;;;14.10;99.90;;;;;;5057064;28;20067;-59
2022/06/05 05:37:32;;;;;;;20.83;17.27;;;14.10;99.90;;;;;;5063930;28;20132;-59
2022/06/05 05:42:43;;;;;;;22.35;17.80;;;14.30;99.90;;;;;;5048628;28;20053;-61
2022/06/05 05:45:09;;;;;;;19.80;16.08;;;14.40;99.90;;;;;;5049993;28;20106;-59
2022/06/05 05:47:36;;;;;;;17.65;15.75;;;14.50;99.90;;;;;;5056374;28;20094;-59
2022/06/05 05:50:08;;;;;;;19.10;15.77;;;14.60;99.90;;;;;;5037837;28;20111;-54
2022/06/05 05:52:35;;;;;;;17.75;15.85;;;14.70;99.90;;;;;;5055501;28;20079;-59
2022/06/05 05:55:01;;;;;;;19.27;17.27;;;14.70;99.90;;;;;;5077507;28;20062;-60
2022/06/05 05:57:27;;;;;;;20.42;17.08;;;14.80;99.90;;;;;;5037619;28;20047;-59
2022/06/05 05:59:54;;;;;;;18.30;16.48;;;14.90;99.90;;;;;;5058328;28;20582;-61
2022/06/05 06:02:22;;;;;;;17.48;15.73;;;15.00;99.90;;;;;;5057917;28;20052;-60
2022/06/05 06:04:50;;;;;;;19.88;17.95;;;15.10;99.90;;;;;;5043985;28;20498;-59
2022/06/05 06:07:17;;;;;;;18.60;16.60;;;15.20;99.90;;;;;;5049214;28;20053;-59
2022/06/05 06:09:43;;;;;;;22.23;19.13;;;15.30;99.90;;;;;;5062684;28;20060;-59
2022/06/05 06:12:10;;;;;;;19.00;16.95;;;15.50;99.90;;;;;;5043881;28;20052;-53
2022/06/05 06:14:37;;;;;;;18.30;16.42;;;15.50;99.90;;;;;;5060869;28;20451;-56
2022/06/05 06:17:04;;;;;;;18.70;16.80;;;15.60;99.90;;;;;;5059172;28;20835;-56
2022/06/05 06:19:31;;;;;;;17.15;15.43;;;15.70;99.90;;;;;;5053374;28;20076;-56
2022/06/05 06:21:58;;;;;;;18.60;15.32;;;15.80;99.90;;;;;;5056065;28;20439;-55
2022/06/05 06:24:24;;;;;;;16.77;15.20;;;15.90;99.90;;;;;;5067093;28;20127;-59
2022/06/05 06:26:50;;;;;;;20.20;18.17;;;15.90;99.90;;;;;;5058162;28;20454;-60
2022/06/05 06:29:16;;;;;;;24.83;22.40;;;16.20;99.90;;;;;;5061484;28;20060;-58
2022/06/05 06:31:43;;;;;;;55.55;49.50;;;16.30;99.90;;;;;;5058005;28;20044;-59
2022/06/05 06:34:09;;;;;;;40.03;35.78;;;16.40;99.90;;;;;;5049469;28;20059;-59
2022/06/05 06:36:36;;;;;;;19.35;17.38;;;16.50;99.90;;;;;;5038814;28;20044;-58
2022/06/05 06:39:03;;;;;;;21.95;19.50;;;16.70;99.90;;;;;;5050964;28;20114;-59
2022/06/05 06:41:29;;;;;;;24.67;22.23;;;16.80;99.90;;;;;;5051918;28;20044;-58
2022/06/05 06:43:55;;;;;;;21.80;19.65;;;17.00;99.90;;;;;;5038217;28;20133;-59
2022/06/05 06:46:22;;;;;;;15.90;14.20;;;17.20;99.90;;;;;;5053187;28;20109;-59
2022/06/05 06:48:48;;;;;;;16.60;14.90;;;17.40;99.90;;;;;;5055943;28;20077;-59
2022/06/05 06:51:16;;;;;;;23.17;20.77;;;17.70;99.90;;;;;;5051708;28;20056;-59
2022/06/05 06:53:43;;;;;;;23.05;20.70;;;17.80;99.90;;;;;;5069647;28;20099;-59
2022/06/05 06:56:25;;;;;;;17.05;15.45;;;18.10;99.90;;;;;;5053388;28;20045;-59
2022/06/05 06:58:51;;;;;;;22.80;20.55;;;18.10;99.90;;;;;;5070206;28;20048;-59
2022/06/05 07:01:17;;;;;;;19.05;17.05;;;18.40;99.90;;;;;;5051806;28;20044;-59
2022/06/05 07:03:43;;;;;;;26.48;23.73;;;18.70;99.90;;;;;;5055711;28;20045;-59
2022/06/05 07:06:13;;;;;;;15.93;12.95;;;18.90;99.90;;;;;;5055479;28;20053;-59
2022/06/05 07:08:41;;;;;;;13.15;11.90;;;19.20;99.90;;;;;;5056453;28;20052;-59
2022/06/05 07:11:08;;;;;;;15.68;13.95;;;19.30;99.90;;;;;;5054441;28;20040;-60
2022/06/05 07:13:36;;;;;;;18.23;16.50;;;19.40;99.90;;;;;;5053874;28;20050;-59
2022/06/05 07:16:04;;;;;;;12.57;11.30;;;19.50;99.90;;;;;;5054789;28;20052;-59
2022/06/05 07:18:30;;;;;;;14.50;12.48;;;19.70;99.90;;;;;;5054800;28;20044;-60
2022/06/05 07:20:56;;;;;;;13.85;11.70;;;19.80;99.90;;;;;;5055805;28;20107;-60
2022/06/05 07:23:22;;;;;;;19.63;17.60;;;19.80;99.90;;;;;;5057216;28;20048;-60
2022/06/05 07:25:51;;;;;;;13.70;11.35;;;19.70;99.90;;;;;;5040858;28;20488;-55
2022/06/05 07:28:18;;;;;;;12.50;10.90;;;19.70;99.90;;;;;;5056749;28;20040;-54
2022/06/05 07:30:49;;;;;;;15.13;13.57;;;20.00;99.90;;;;;;5059863;28;20506;-56
2022/06/05 07:33:16;;;;;;;12.15;10.95;;;20.10;99.90;;;;;;5038269;28;20045;-54
2022/06/05 07:35:43;;;;;;;13.77;12.38;;;20.20;99.90;;;;;;5056436;28;20053;-55
2022/06/05 07:38:11;;;;;;;15.27;12.05;;;20.40;99.90;;;;;;5049110;28;20120;-58
2022/06/05 07:40:41;;;;;;;12.50;11.20;;;20.60;99.90;;;;;;5057864;28;20415;-58
2022/06/05 07:43:09;;;;;;;10.73;9.47;;;20.40;99.90;;;;;;5058149;28;20740;-57
2022/06/05 07:45:37;;;;;;;17.70;13.32;;;20.60;99.90;;;;;;5057896;28;20044;-59
2022/06/05 07:48:04;;;;;;;10.85;9.43;;;20.60;99.90;;;;;;5074523;28;20044;-59
2022/06/05 07:50:30;;;;;;;10.35;9.25;;;20.70;99.90;;;;;;5056112;28;20110;-58
2022/06/05 07:55:41;;;;;;;11.63;10.52;;;20.80;99.90;;;;;;5059506;28;20048;-57
2022/06/05 07:58:07;;;;;;;14.40;12.88;;;20.90;99.90;;;;;;5041647;28;20082;-58
2022/06/05 08:00:33;;;;;;;10.50;8.63;;;21.10;99.90;;;;;;5039975;28;20048;-57
2022/06/05 08:02:59;;;;;;;9.88;8.38;;;21.10;99.90;;;;;;5059054;28;20105;-58
2022/06/05 08:05:25;;;;;;;9.75;8.75;;;21.10;99.90;;;;;;5061370;28;20041;-58
2022/06/05 08:07:51;;;;;;;16.10;14.43;;;21.00;99.90;;;;;;5077233;28;20049;-58
2022/06/05 08:10:17;;;;;;;9.13;8.10;;;21.10;99.90;;;;;;5060199;28;20404;-58
2022/06/05 08:12:45;;;;;;;11.27;10.07;;;21.40;99.90;;;;;;5045500;28;20048;-58
2022/06/05 08:15:13;;;;;;;14.80;13.40;;;21.60;99.90;;;;;;5046031;28;20117;-58
2022/06/05 08:17:40;;;;;;;12.27;8.60;;;21.60;99.90;;;;;;5044490;28;20049;-58
2022/06/05 08:20:08;;;;;;;11.23;10.13;;;21.80;99.90;;;;;;5064876;28;20053;-58
2022/06/05 08:22:34;;;;;;;9.73;8.73;;;21.80;99.90;;;;;;5061637;28;20040;-59
2022/06/05 08:25:01;;;;;;;9.27;8.30;;;22.00;99.90;;;;;;5027774;28;20045;-55
2022/06/05 08:27:28;;;;;;;9.32;8.43;;;22.10;99.90;;;;;;5062208;28;20048;-55
2022/06/05 08:29:55;;;;;;;8.25;7.35;;;22.10;99.90;;;;;;5064201;28;20141;-55
2022/06/05 08:32:23;;;;;;;15.15;12.68;;;22.00;99.90;;;;;;5071529;28;20080;-52
2022/06/05 08:34:49;;;;;;;14.45;13.05;;;22.10;99.90;;;;;;5063225;28;20066;-52
2022/06/05 08:43:07;;;;;;;12.50;9.70;;;22.00;99.90;;;;;;5062542;28;20064;-54
2022/06/05 08:45:48;;;;;;;12.45;11.13;;;22.00;99.90;;;;;;5059753;28;20080;-54
2022/06/05 08:48:24;;;;;;;12.00;9.20;;;22.10;99.90;;;;;;5061584;28;20048;-53
2022/06/05 08:50:56;;;;;;;12.10;10.77;;;22.10;99.90;;;;;;5044703;28;20085;-53
2022/06/05 08:53:22;;;;;;;10.43;9.32;;;22.40;99.90;;;;;;5057629;28;20048;-55
2022/06/05 08:55:52;;;;;;;10.93;9.60;;;22.20;99.90;;;;;;5040981;28;20052;-47
2022/06/05 08:58:25;;;;;;;11.50;10.40;;;22.60;99.90;;;;;;5061969;28;20127;-56
2022/06/05 09:00:57;;;;;;;22.58;20.45;;;22.70;99.90;;;;;;5057857;28;20534;-58
2022/06/05 09:03:41;;;;;;;19.50;17.58;;;23.00;99.90;;;;;;5058839;28;20040;-56
2022/06/05 09:06:31;;;;;;;16.30;14.68;;;23.30;99.90;;;;;;5060365;28;20063;-57
2022/06/05 09:08:58;;;;;;;8.60;7.80;;;23.50;99.90;;;;;;5060825;28;20045;-58
2022/06/05 09:11:39;;;;;;;9.35;8.45;;;23.80;99.90;;;;;;5062145;28;20362;-58
2022/06/05 09:14:14;;;;;;;11.75;10.57;;;23.90;99.90;;;;;;5062932;28;20202;-57
2022/06/05 09:16:54;;;;;;;16.38;14.73;;;24.20;99.90;;;;;;5061103;28;20052;-57
2022/06/05 09:19:25;;;;;;;8.60;7.07;;;24.30;99.90;;;;;;5057911;28;20087;-57
2022/06/05 09:21:56;;;;;;;11.15;10.05;;;24.20;99.90;;;;;;5061307;28;20056;-58
2022/06/05 09:24:28;;;;;;;;;;;24.40;99.90;;;;;;5061937;28;20078;-55
2022/06/05 09:27:21;;;;;;;13.73;12.15;;;24.60;99.90;;;;;;5063672;28;20008;-55
2022/06/05 09:29:59;;;;;;;10.05;7.50;;;24.70;99.90;;;;;;5057440;28;20464;-54
2022/06/05 09:32:43;;;;;;;13.18;10.68;;;24.80;99.90;;;;;;5062857;28;20058;-57
2022/06/05 09:35:29;;;;;;;8.05;6.80;;;24.80;99.90;;;;;;5061305;28;20064;-54
2022/06/05 09:38:01;;;;;;;7.50;6.70;;;24.60;99.90;;;;;;5057953;28;20055;-51
2022/06/05 09:40:32;;;;;;;9.38;8.27;;;24.80;99.90;;;;;;5059920;28;20052;-54
2022/06/05 09:43:35;;;;;;;18.30;16.50;;;24.80;99.90;;;;;;5051670;28;20590;-56
2022/06/05 09:46:20;;;;;;;26.98;24.42;;;24.60;99.90;;;;;;5019856;28;20055;-54
2022/06/05 09:49:00;;;;;;;12.95;11.70;;;24.70;99.90;;;;;;5058245;28;20036;-56
2022/06/05 09:51:27;;;;;;;8.55;7.72;;;24.60;99.90;;;;;;5062598;28;20045;-56
2022/06/05 09:54:07;;;;;;;8.48;7.25;;;24.40;99.90;;;;;;5050734;28;20044;-55
2022/06/05 09:59:40;;;;;;;7.57;6.78;;;24.30;99.90;;;;;;5063023;28;20051;-53
2022/06/05 10:02:08;;;;;;;10.38;7.15;;;24.40;99.90;;;;;;5056562;28;20052;-55
2022/06/05 10:04:35;;;;;;;11.40;10.30;;;24.30;99.90;;;;;;5059834;28;20561;-54
2022/06/05 10:07:13;;;;;;;11.30;8.25;;;24.30;99.90;;;;;;5038118;28;20491;-53
2022/06/05 10:09:45;;;;;;;8.75;7.88;;;24.30;99.90;;;;;;5057028;28;20182;-55
2022/06/05 10:12:17;;;;;;;7.90;7.20;;;24.20;99.90;;;;;;5057908;28;20052;-54
2022/06/05 10:15:05;;;;;;;8.95;7.45;;;24.10;99.90;;;;;;5057594;28;20133;-55
2022/06/05 10:17:31;;;;;;;12.52;10.07;;;24.00;99.90;;;;;;5059687;28;20567;-54
2022/06/05 10:20:06;;;;;;;13.23;12.02;;;23.90;99.90;;;;;;5058404;28;20176;-54
2022/06/05 10:22:47;;;;;;;8.73;7.38;;;24.00;99.90;;;;;;5062424;28;20039;-56
2022/06/05 10:25:30;;;;;;;7.38;6.68;;;23.80;99.90;;;;;;5058088;28;20126;-51
2022/06/05 10:28:08;;;;;;;16.67;14.25;;;23.70;99.90;;;;;;5060744;28;20844;-55
2022/06/05 10:30:58;;;;;;;11.25;10.15;;;23.50;99.90;;;;;;5061968;28;20041;-55
2022/06/05 10:33:46;;;;;;;8.43;6.93;;;23.50;99.90;;;;;;5068235;28;20082;-54
2022/06/05 10:36:25;;;;;;;8.63;6.60;;;23.60;99.90;;;;;;5057899;28;20052;-53
2022/06/05 10:39:10;;;;;;;8.52;7.60;;;23.60;99.90;;;;;;5046677;28;20060;-50
2022/06/05 10:41:41;;;;;;;9.40;6.93;;;23.70;99.90;;;;;;5057753;28;20077;-52
2022/06/05 10:44:19;;;;;;;7.68;6.68;;;23.80;99.90;;;;;;5063360;28;20052;-54
2022/06/05 10:47:10;;;;;;;8.38;7.07;;;23.90;99.90;;;;;;5060978;28;20052;-54
2022/06/05 10:50:08;;;;;;;7.35;6.63;;;24.00;99.90;;;;;;5044916;28;20582;-54
2022/06/05 10:53:12;;;;;;;8.27;6.28;;;24.00;99.90;;;;;;5019188;28;20048;-58
2022/06/05 10:56:03;;;;;;;7.28;6.53;;;24.00;99.90;;;;;;5056127;28;20095;-58
2022/06/05 10:58:55;;;;;;;7.20;6.28;;;24.10;99.90;;;;;;5060899;28;20040;-54
2022/06/05 11:01:31;;;;;;;8.63;7.18;;;24.20;99.90;;;;;;5058336;28;20044;-56
2022/06/05 11:04:09;;;;;;;8.52;6.53;;;24.30;99.90;;;;;;5060533;28;20418;-55
2022/06/05 11:07:10;;;;;;;6.75;6.10;;;24.00;99.90;;;;;;5061238;28;20594;-57
2022/06/05 11:09:55;;;;;;;20.05;17.95;;;24.00;99.90;;;;;;5043410;28;20041;-50
2022/06/05 11:15:24;;;;;;;23.42;21.20;;;24.10;99.90;;;;;;5075544;28;20075;-55
2022/06/05 11:18:14;;;;;;;10.73;9.57;;;24.00;99.90;;;;;;5054030;28;20836;-60
2022/06/05 11:20:43;;;;;;;9.43;8.52;;;23.90;99.90;;;;;;5060340;28;20143;-60
2022/06/05 11:23:19;;;;;;;14.30;12.80;;;23.90;99.90;;;;;;5058245;28;20051;-59
2022/06/05 11:26:14;;;;;;;8.70;7.90;;;23.90;99.90;;;;;;5042668;28;20512;-60
2022/06/05 11:28:55;;;;;;;8.35;7.50;;;24.00;99.90;;;;;;5051879;28;20097;-60
2022/06/05 11:31:51;;;;;;;9.52;8.63;;;24.00;99.90;;;;;;5053888;28;20435;-60
2022/06/05 11:34:32;;;;;;;10.93;8.13;;;23.90;99.90;;;;;;5051629;28;20045;-59
2022/06/05 11:37:13;;;;;;;9.27;8.27;;;23.90;99.90;;;;;;5053812;28;20048;-59
2022/06/05 11:39:51;;;;;;;8.60;7.80;;;24.00;99.90;;;;;;5072179;28;20127;-50
2022/06/05 11:42:29;;;;;;;7.90;6.70;;;24.00;99.90;;;;;;5057014;28;20839;-52
2022/06/05 11:45:04;;;;;;;8.68;7.28;;;24.10;99.90;;;;;;5055557;28;20040;-60
2022/06/05 11:47:42;;;;;;;9.05;7.07;;;24.20;99.90;;;;;;5056933;28;20041;-48
2022/06/05 11:50:34;;;;;;;7.80;6.97;;;24.00;99.90;;;;;;5056459;28;20813;-47
2022/06/05 11:53:18;;;;;;;7.88;7.03;;;24.00;99.90;;;;;;5071195;28;20044;-49
2022/06/05 11:55:49;;;;;;;8.95;8.02;;;24.00;99.90;;;;;;5056088;28;20526;-50
2022/06/05 11:58:24;;;;;;;12.13;8.13;;;23.90;99.90;;;;;;5076551;28;20119;-52
2022/06/05 12:00:58;;;;;;;9.15;6.20;;;24.00;99.90;;;;;;5055045;28;20080;-50
2022/06/05 12:04:10;;;;;;;8.55;7.60;;;24.00;99.90;;;;;;5057498;28;20044;-59
2022/06/05 12:06:58;;;;;;;7.95;6.68;;;24.00;99.90;;;;;;5010821;28;20713;-59
2022/06/05 12:09:28;;;;;;;8.65;7.30;;;24.00;99.90;;;;;;5053090;28;20535;-58
2022/06/05 12:12:17;;;;;;;9.48;8.02;;;24.00;99.90;;;;;;5061346;28;20048;-58
2022/06/05 12:14:49;;;;;;;16.55;14.35;;;23.90;99.90;;;;;;5061193;28;20051;-60
2022/06/05 12:17:28;;;;;;;12.95;11.68;;;23.80;99.90;;;;;;5042613;28;20087;-59
2022/06/05 12:20:10;;;;;;;17.73;15.75;;;23.80;99.90;;;;;;5059444;28;20823;-59
2022/06/05 12:22:59;;;;;;;8.18;6.82;;;23.90;99.90;;;;;;5036124;28;20059;-58
2022/06/05 12:25:38;;;;;;;9.30;8.20;;;24.00;99.90;;;;;;5058254;28;20048;-59
2022/06/05 12:28:20;;;;;;;8.98;8.07;;;23.90;99.90;;;;;;5034882;28;20102;-58
2022/06/05 12:30:57;;;;;;;65.10;58.80;;;23.90;99.90;;;;;;5070241;28;20136;-59
2022/06/05 12:34:02;;;;;;;41.72;37.47;;;24.00;99.90;;;;;;5058117;28;20056;-59
2022/06/05 12:36:49;;;;;;;10.30;9.20;;;24.00;99.90;;;;;;5022663;28;20502;-58
2022/06/05 12:39:26;;;;;;;8.80;7.78;;;24.10;99.90;;;;;;5054094;28;20059;-59
2022/06/05 12:42:21;;;;;;;18.77;16.98;;;24.20;99.90;;;;;;5057686;28;20418;-59
2022/06/05 12:44:49;;;;;;;25.17;22.75;;;24.20;99.90;;;;;;5052950;28;20047;-54
2022/06/05 12:47:38;;;;;;;14.13;12.38;;;24.20;99.90;;;;;;5058545;28;20055;-59
2022/06/05 12:50:40;;;;;;;16.67;15.05;;;24.20;99.90;;;;;;5058655;28;20057;-59
2022/06/05 12:53:37;;;;;;;9.85;8.23;;;24.20;99.90;;;;;;5054282;28;20568;-59
2022/06/05 12:56:12;;;;;;;11.48;10.15;;;24.20;99.90;;;;;;5062454;28;20474;-56
2022/06/05 12:58:59;;;;;;;10.82;8.32;;;24.30;99.90;;;;;;5060775;28;20040;-56
2022/06/05 13:01:39;;;;;;;7.10;6.40;;;24.50;99.90;;;;;;5060051;28;20052;-56
2022/06/05 13:04:05;;;;;;;7.88;6.28;;;24.60;99.90;;;;;;5059288;28;20605;-57
2022/06/05 13:06:51;;;;;;;7.75;6.35;;;24.60;99.90;;;;;;5061085;28;20048;-57
2022/06/05 13:09:32;;;;;;;7.32;6.63;;;24.60;99.90;;;;;;5063161;28;20051;-57
2022/06/05 13:12:27;;;;;;;7.78;6.53;;;24.60;99.90;;;;;;5064689;28;20053;-56
2022/06/05 13:15:09;;;;;;;7.05;6.35;;;24.80;99.90;;;;;;5045687;28;20395;-55
2022/06/05 13:17:54;;;;;;;;;;;24.90;99.90;;;;;;5058592;28;20475;-57
2022/06/05 13:20:38;;;;;;;7.88;6.82;;;25.00;99.90;;;;;;5043339;28;19924;-56
2022/06/05 13:23:26;;;;;;;7.75;6.65;;;25.20;99.90;;;;;;5039714;28;20680;-56
2022/06/05 13:26:34;;;;;;;9.57;7.78;;;25.30;99.90;;;;;;5059433;28;20044;-56